createdAt,value
2023-03-12T00:00:08.734Z,6.22
2023-03-12T00:05:11.114Z,5.82
2023-03-12T00:10:13.198Z,6.65
2023-03-12T00:15:15.361Z,7.43
2023-03-12T00:20:17.942Z,6.50
2023-03-12T00:25:21.237Z,6.22
2023-03-12T00:30:23.246Z,5.88
2023-03-12T00:35:25.835Z,7.05
2023-03-12T00:40:28.075Z,5.63
2023-03-12T00:45:30.125Z,5.97
2023-03-12T00:50:32.173Z,5.38
2023-03-12T00:55:34.315Z,6.07
2023-03-12T01:00:36.588Z,6.40
2023-03-12T01:05:40.779Z,6.05
2023-03-12T01:10:43.904Z,6.03
2023-03-12T01:15:45.946Z,5.30
2023-03-12T01:20:48.117Z,5.85
2023-03-12T01:25:51.928Z,6.70
2023-03-12T01:30:53.983Z,6.97
2023-03-12T01:35:56.479Z,6.15
2023-03-12T01:40:58.955Z,6.20
2023-03-12T01:46:01.268Z,6.45
2023-03-12T01:51:04.799Z,6.07
2023-03-12T01:56:08.113Z,5.82
2023-03-12T02:01:10.434Z,6.18
2023-03-12T02:06:15.643Z,5.55
2023-03-12T02:11:17.985Z,7.13
2023-03-12T02:16:20.719Z,5.43
2023-03-12T02:21:23.877Z,4.20
2023-03-12T02:26:28.252Z,5.65
2023-03-12T02:31:38.584Z,5.70
2023-03-12T02:36:42.234Z,5.22
2023-03-12T02:41:57.724Z,5.22
2023-03-12T02:47:01.574Z,5.03
2023-03-12T02:52:04.777Z,4.97
2023-03-12T02:57:07.293Z,5.32
2023-03-12T03:02:12.715Z,4.28
2023-03-12T03:07:15.346Z,3.83
2023-03-12T03:12:17.565Z,4.72
2023-03-12T03:17:20.025Z,4.82
2023-03-12T03:22:22.618Z,4.53
2023-03-12T03:27:25.006Z,5.03
2023-03-12T03:32:28.540Z,4.70
2023-03-12T03:37:30.841Z,4.95
2023-03-12T03:42:33.214Z,3.75
2023-03-12T03:47:35.770Z,5.05
2023-03-12T03:52:38.419Z,4.03
2023-03-12T03:57:41.170Z,4.90
2023-03-12T04:02:44.682Z,4.68
2023-03-12T04:07:48.708Z,4.05
2023-03-12T04:12:53.992Z,4.93
2023-03-12T04:17:56.297Z,4.75
2023-03-12T04:23:01.277Z,4.70
2023-03-12T04:28:04.628Z,4.57
2023-03-12T04:33:08.381Z,4.03
2023-03-12T04:38:10.957Z,5.15
2023-03-12T04:43:13.429Z,4.90
2023-03-12T04:48:15.646Z,4.47
2023-03-12T04:53:18.765Z,4.07
2023-03-12T04:58:23.042Z,4.70
2023-03-12T05:03:26.369Z,4.22
2023-03-12T05:08:29.128Z,5.47
2023-03-12T05:13:31.423Z,4.43
2023-03-12T05:18:34.360Z,5.70
2023-03-12T05:23:36.778Z,4.13
2023-03-12T05:28:38.992Z,4.13
2023-03-12T05:33:41.929Z,4.10
2023-03-12T05:38:45.288Z,4.93
2023-03-12T05:43:50.077Z,4.60
2023-03-12T05:48:53.751Z,5.03
2023-03-12T05:53:56.481Z,4.20
2023-03-12T05:58:58.640Z,3.53
2023-03-12T06:04:01.632Z,4.70
2023-03-12T06:09:05.379Z,3.88
2023-03-12T06:14:07.683Z,4.53
2023-03-12T06:19:14.243Z,4.30
2023-03-12T06:24:18.477Z,4.65
2023-03-12T06:29:28.578Z,4.32
2023-03-12T06:34:30.741Z,4.43
2023-03-12T06:39:32.875Z,3.70
2023-03-12T06:44:34.999Z,4.10
2023-03-12T06:49:38.222Z,3.42
2023-03-12T06:54:40.441Z,3.08
2023-03-12T06:59:42.996Z,3.88
2023-03-12T07:04:45.262Z,5.13
2023-03-12T07:09:47.502Z,2.88
2023-03-12T07:14:49.592Z,3.28
2023-03-12T07:19:52.097Z,3.85
2023-03-12T07:24:54.193Z,3.50
2023-03-12T07:29:56.318Z,4.03
2023-03-12T07:34:58.384Z,5.03
2023-03-12T07:40:00.545Z,4.50
2023-03-12T07:45:04.301Z,4.13
2023-03-12T07:50:07.043Z,3.80
2023-03-12T07:55:10.615Z,5.47
2023-03-12T08:00:13.560Z,3.95
2023-03-12T08:05:15.899Z,3.65
2023-03-12T08:10:18.445Z,4.72
2023-03-12T08:15:20.604Z,3.83
2023-03-12T08:20:22.722Z,4.75
2023-03-12T08:25:25.035Z,4.28
2023-03-12T08:30:30.014Z,4.28
2023-03-12T08:35:32.383Z,4.00
2023-03-12T08:40:35.063Z,4.38
2023-03-12T08:45:37.668Z,4.93
2023-03-12T08:50:40.059Z,5.25
2023-03-12T08:55:42.233Z,3.95
2023-03-12T09:00:44.477Z,4.50
2023-03-12T09:05:46.667Z,3.70
2023-03-12T09:10:52.448Z,5.88
2023-03-12T09:16:00.036Z,3.90
2023-03-12T09:21:02.897Z,3.95
2023-03-12T09:26:05.131Z,3.28
2023-03-12T09:31:07.290Z,3.67
2023-03-12T09:36:09.623Z,3.10
2023-03-12T09:41:19.330Z,3.25
2023-03-12T09:46:27.044Z,2.67
2023-03-12T09:51:39.098Z,3.13
2023-03-12T09:56:41.524Z,2.15
2023-03-12T10:01:58.105Z,2.65
2023-03-12T10:07:24.536Z,1.95
2023-03-12T10:12:39.359Z,2.35
2023-03-12T10:18:31.864Z,2.20
2023-03-12T10:23:48.560Z,2.33
2023-03-12T10:28:57.390Z,2.22
2023-03-12T10:34:01.560Z,2.50
2023-03-12T10:39:04.404Z,2.72
2023-03-12T10:44:13.201Z,2.72
2023-03-12T10:49:27.460Z,2.60
2023-03-12T10:54:33.904Z,2.70
2023-03-12T10:59:38.822Z,2.50
2023-03-12T11:04:40.973Z,2.60
2023-03-12T11:09:43.013Z,2.55
2023-03-12T11:14:46.925Z,3.00
2023-03-12T11:19:49.028Z,2.38
2023-03-12T11:25:07.252Z,3.00
2023-03-12T11:30:15.149Z,3.25
2023-03-12T11:35:24.144Z,2.50
2023-03-12T11:40:44.645Z,3.22
2023-03-12T11:46:17.676Z,3.13
2023-03-12T11:51:37.592Z,2.75
2023-03-12T11:56:48.894Z,2.67
2023-03-12T12:02:17.174Z,2.65
2023-03-12T12:07:22.345Z,3.30
2023-03-12T12:12:36.406Z,2.70
2023-03-12T12:18:04.647Z,2.40
2023-03-12T12:23:33.313Z,2.05
2023-03-12T12:28:44.507Z,2.30
2023-03-12T12:34:02.040Z,2.33
2023-03-12T12:39:23.346Z,1.95
2023-03-12T12:44:31.067Z,1.60
2023-03-12T12:50:00.586Z,1.20
2023-03-12T12:55:21.697Z,1.25
2023-03-12T13:01:09.347Z,1.30
2023-03-12T13:06:11.763Z,0.63
2023-03-12T13:11:20.273Z,0.68
2023-03-12T13:16:43.346Z,0.57
2023-03-12T13:21:51.661Z,0.65
2023-03-12T13:27:00.651Z,0.60
2023-03-12T13:32:02.990Z,0.70
2023-03-12T13:37:27.389Z,0.55
2023-03-12T13:42:39.460Z,0.32
2023-03-12T13:47:43.362Z,0.30
2023-03-12T13:52:55.784Z,0.30
2023-03-12T13:58:01.692Z,0.30
2023-03-12T14:08:59.172Z,0.20
2023-03-12T14:19:30.179Z,0.30
2023-03-12T14:24:48.886Z,0.28
2023-03-12T14:30:03.948Z,0.20
2023-03-12T14:35:08.931Z,0.40
2023-03-12T14:40:25.590Z,0.40
2023-03-12T14:45:27.808Z,0.40
2023-03-12T14:50:41.362Z,0.30
2023-03-12T14:55:43.440Z,0.17
2023-03-12T15:00:54.417Z,0.20
2023-03-12T15:05:57.513Z,0.28
2023-03-12T15:10:59.810Z,0.30
2023-03-12T15:16:02.019Z,0.38
2023-03-12T15:21:04.549Z,0.30
2023-03-12T15:26:15.524Z,0.30
2023-03-12T15:31:17.890Z,0.40
2023-03-12T15:36:26.477Z,0.30
2023-03-12T15:41:49.120Z,0.20
2023-03-12T15:47:04.091Z,0.30
2023-03-12T15:52:24.786Z,0.40
2023-03-12T15:57:26.988Z,0.32
2023-03-12T16:02:37.580Z,0.40
2023-03-12T16:07:39.756Z,0.40
2023-03-12T16:12:45.240Z,0.65
2023-03-12T16:17:47.463Z,0.70
2023-03-12T16:22:49.558Z,1.10
2023-03-12T16:27:55.094Z,1.50
2023-03-12T16:32:58.961Z,1.45
2023-03-12T16:38:02.414Z,2.80
2023-03-12T16:43:07.275Z,2.60
2023-03-12T16:48:18.161Z,3.15
2023-03-12T16:53:20.720Z,3.88
2023-03-12T16:58:24.848Z,3.40
2023-03-12T17:03:38.376Z,3.50
2023-03-12T17:08:40.484Z,3.70
2023-03-12T17:13:43.272Z,4.07
2023-03-12T17:18:45.501Z,6.07
2023-03-12T17:23:50.277Z,5.30
2023-03-12T17:28:52.291Z,5.28
2023-03-12T17:33:54.294Z,5.60
2023-03-12T17:38:56.444Z,4.93
2023-03-12T17:44:01.669Z,5.85
2023-03-12T17:49:04.038Z,6.88
2023-03-12T17:54:06.210Z,5.85
2023-03-12T17:59:08.220Z,7.60
2023-03-12T18:04:10.288Z,7.25
2023-03-12T18:09:12.265Z,7.75
2023-03-12T18:14:14.328Z,6.65
2023-03-12T18:19:16.497Z,7.72
2023-03-12T18:24:18.770Z,7.60
2023-03-12T18:29:20.890Z,6.55
2023-03-12T18:34:23.591Z,7.47
2023-03-12T18:39:25.697Z,6.45
2023-03-12T18:44:27.715Z,6.20
2023-03-12T18:49:30.093Z,5.82
2023-03-12T18:54:33.687Z,5.85
2023-03-12T18:59:35.753Z,5.63
2023-03-12T19:04:37.754Z,5.85
2023-03-12T19:09:39.805Z,6.90
2023-03-12T19:14:41.967Z,5.85
2023-03-12T19:19:43.998Z,5.50
2023-03-12T19:24:46.147Z,5.75
2023-03-12T19:29:48.194Z,5.07
2023-03-12T19:34:52.280Z,6.03
2023-03-12T19:39:54.414Z,5.68
2023-03-12T19:44:56.449Z,5.53
2023-03-12T19:49:58.569Z,4.60
2023-03-12T19:55:05.212Z,4.75
2023-03-12T20:00:10.114Z,6.25
2023-03-12T20:05:12.706Z,4.38
2023-03-12T20:10:15.496Z,4.60
2023-03-12T20:15:18.264Z,4.80
2023-03-12T20:20:20.496Z,4.60
2023-03-12T20:25:22.617Z,4.15
2023-03-12T20:30:24.745Z,4.63
2023-03-12T20:35:26.990Z,4.20
2023-03-12T20:40:29.314Z,4.60
2023-03-12T20:45:32.740Z,4.85
2023-03-12T20:50:38.868Z,5.05
2023-03-12T20:55:41.363Z,4.10
2023-03-12T21:00:44.303Z,3.65
2023-03-12T21:05:54.015Z,3.45
2023-03-12T21:10:56.153Z,4.07
2023-03-12T21:15:58.244Z,4.60
2023-03-12T21:21:08.498Z,4.10
2023-03-12T21:26:11.683Z,4.95
2023-03-12T21:31:17.685Z,4.13
2023-03-12T21:36:19.818Z,3.92
2023-03-12T21:41:21.992Z,4.50
2023-03-12T21:46:24.942Z,4.90
2023-03-12T21:51:27.186Z,3.90
2023-03-12T21:56:30.379Z,5.00
2023-03-12T22:01:32.573Z,4.32
2023-03-12T22:06:34.701Z,4.25
2023-03-12T22:11:36.764Z,3.55
2023-03-12T22:16:38.789Z,4.05
2023-03-12T22:21:42.729Z,3.60
2023-03-12T22:26:46.498Z,4.55
2023-03-12T22:31:48.691Z,3.42
2023-03-12T22:37:09.164Z,3.67
2023-03-12T22:42:11.161Z,3.45
2023-03-12T22:47:13.146Z,3.58
2023-03-12T22:52:15.188Z,2.88
2023-03-12T22:57:17.296Z,3.47
2023-03-12T23:02:19.336Z,3.88
2023-03-12T23:07:21.381Z,3.92
2023-03-12T23:12:23.666Z,4.20
2023-03-12T23:17:25.702Z,3.95
2023-03-12T23:22:27.736Z,4.55
2023-03-12T23:27:29.797Z,3.97
2023-03-12T23:32:31.810Z,4.57
2023-03-12T23:37:33.869Z,4.65
2023-03-12T23:42:35.883Z,4.57
2023-03-12T23:47:37.996Z,4.50
2023-03-12T23:52:40.032Z,5.03
2023-03-12T23:57:42.043Z,4.80
